Time;durP1;ratioP1;P1;durP2;ratioP2;P2;SDS_P1;SDS_P2;PMS_P1;PMS_P2;Temp;Humidity;BMP_temperature;BMP_pressure;BME280_temperature;BME280_humidity;BME280_pressure;Samples;Min_cycle;Max_cycle;Signal;HPM_P1;HPM_P2
2022/05/25 00:01:44;;;;;;;2.43;1.70;;;;;;;;;;5074805;28;20241;-84
2022/05/25 00:04:11;;;;;;;2.47;1.67;;;;;;;;;;5074954;28;20198;-84
2022/05/25 00:06:38;;;;;;;1.63;1.53;;;;;;;;;;5074596;28;20650;-84
2022/05/25 00:09:05;;;;;;;2.20;1.43;;;;;;;;;;5075190;28;20216;-85
2022/05/25 00:11:33;;;;;;;1.37;1.30;;;;;;;;;;5074617;28;20302;-84
2022/05/25 00:14:01;;;;;;;2.20;1.70;;;;;;;;;;5075661;28;20238;-84
2022/05/25 00:16:28;;;;;;;4.10;1.63;;;;;;;;;;5076845;28;20650;-85
2022/05/25 00:21:40;;;;;;;3.10;1.60;;;;;;;;;;5077677;28;20247;-84
2022/05/25 00:24:07;;;;;;;2.63;1.80;;;;;;;;;;5077142;28;20205;-84
2022/05/25 00:26:34;;;;;;;2.40;1.60;;;;;;;;;;5077478;28;20233;-85
2022/05/25 00:29:04;;;;;;;3.47;1.50;;;;;;;;;;5076301;28;20205;-85
2022/05/25 00:31:31;;;;;;;1.50;1.40;;;;;;;;;;5076739;28;20294;-84
2022/05/25 00:33:59;;;;;;;1.83;1.73;;;;;;;;;;5077049;28;20256;-85
2022/05/25 00:36:26;;;;;;;2.80;1.80;;;;;;;;;;5077107;28;20320;-84
2022/05/25 00:38:53;;;;;;;2.03;1.93;;;;;;;;;;5077576;28;20250;-83
2022/05/25 00:41:23;;;;;;;2.40;1.80;;;;;;;;;;5076409;28;20237;-84
2022/05/25 00:43:50;;;;;;;2.03;1.90;;;;;;;;;;5077027;28;20189;-84
2022/05/25 00:46:19;;;;;;;1.73;1.63;;;;;;;;;;5076710;28;20233;-84
2022/05/25 00:48:48;;;;;;;1.60;1.50;;;;;;;;;;5077261;28;20283;-85
2022/05/25 00:51:21;;;;;;;1.80;1.70;;;;;;;;;;5076499;28;20271;-85
2022/05/25 00:53:50;;;;;;;1.93;1.47;;;;;;;;;;5076847;28;20220;-85
2022/05/25 00:56:18;;;;;;;4.63;1.60;;;;;;;;;;5076380;28;20652;-84
2022/05/25 00:58:49;;;;;;;3.77;1.73;;;;;;;;;;5077289;28;20275;-85
2022/05/25 01:01:16;;;;;;;4.13;1.70;;;;;;;;;;5076154;28;20233;-84
2022/05/25 01:03:44;;;;;;;4.33;1.63;;;;;;;;;;5066433;28;20626;-84
2022/05/25 01:06:16;;;;;;;3.83;1.50;;;;;;;;;;5055677;28;20295;-85
2022/05/25 01:08:49;;;;;;;4.03;1.60;;;;;;;;;;5052994;28;20198;-84
2022/05/25 01:11:22;;;;;;;1.87;1.70;;;;;;;;;;5036116;28;20249;-84
2022/05/25 01:13:53;;;;;;;2.57;1.80;;;;;;;;;;5037165;28;20570;-85
2022/05/25 01:16:28;;;;;;;2.20;1.50;;;;;;;;;;5036886;28;20234;-84
2022/05/25 01:18:58;;;;;;;2.97;1.67;;;;;;;;;;5037186;28;20207;-84
2022/05/25 01:21:27;;;;;;;3.90;1.90;;;;;;;;;;5036624;28;20723;-84
2022/05/25 01:23:58;;;;;;;4.20;1.37;;;;;;;;;;5041510;28;20214;-83
2022/05/25 01:26:44;;;;;;;3.40;1.90;;;;;;;;;;5040298;28;20246;-84
2022/05/25 01:29:15;;;;;;;2.03;1.63;;;;;;;;;;5038037;28;20313;-84
2022/05/25 01:31:46;;;;;;;2.37;1.40;;;;;;;;;;5038066;28;20234;-84
2022/05/25 01:34:18;;;;;;;1.70;1.60;;;;;;;;;;5036863;28;20372;-84
2022/05/25 01:36:49;;;;;;;3.37;1.80;;;;;;;;;;5038049;28;20245;-84
2022/05/25 01:39:18;;;;;;;1.83;1.73;;;;;;;;;;5038554;28;20198;-83
2022/05/25 01:41:47;;;;;;;2.00;1.90;;;;;;;;;;5041481;28;20239;-84
2022/05/25 01:44:16;;;;;;;4.63;1.63;;;;;;;;;;5041687;28;20257;-83
2022/05/25 01:46:47;;;;;;;3.23;1.63;;;;;;;;;;5042251;28;20237;-84
2022/05/25 01:49:18;;;;;;;1.97;1.87;;;;;;;;;;5043409;28;20659;-84
2022/05/25 01:51:48;;;;;;;3.13;2.40;;;;;;;;;;5042736;28;20630;-85
2022/05/25 01:54:17;;;;;;;2.03;1.93;;;;;;;;;;5042091;28;20294;-84
2022/05/25 01:56:47;;;;;;;4.10;1.80;;;;;;;;;;5041293;28;20318;-84
2022/05/25 01:59:15;;;;;;;2.20;2.00;;;;;;;;;;5041923;28;20199;-84
2022/05/25 02:01:50;;;;;;;3.43;1.87;;;;;;;;;;5041866;28;20288;-84
2022/05/25 02:04:22;;;;;;;3.03;1.70;;;;;;;;;;5042342;28;20209;-85
2022/05/25 02:06:58;;;;;;;1.80;1.70;;;;;;;;;;5041495;28;20284;-84
2022/05/25 02:09:37;;;;;;;1.97;1.80;;;;;;;;;;5041787;28;20183;-84
2022/05/25 02:12:07;;;;;;;2.30;1.67;;;;;;;;;;5039975;28;20767;-84
2022/05/25 02:14:53;;;;;;;1.63;1.60;;;;;;;;;;5041495;28;20223;-84
2022/05/25 02:17:25;;;;;;;4.73;1.87;;;;;;;;;;5063075;28;20301;-84
2022/05/25 02:19:57;;;;;;;3.20;1.90;;;;;;;;;;5070352;28;20200;-84
2022/05/25 02:22:27;;;;;;;2.73;1.57;;;;;;;;;;5062612;28;20225;-84
2022/05/25 02:25:00;;;;;;;3.07;1.50;;;;;;;;;;5061422;28;20225;-84
2022/05/25 02:27:31;;;;;;;1.90;1.80;;;;;;;;;;5064052;28;20225;-84
2022/05/25 02:30:01;;;;;;;5.10;2.17;;;;;;;;;;5063548;28;20228;-84
2022/05/25 02:32:32;;;;;;;2.77;1.77;;;;;;;;;;5062388;28;20229;-83
2022/05/25 02:35:00;;;;;;;2.87;1.70;;;;;;;;;;5061746;28;20252;-84
2022/05/25 02:37:29;;;;;;;2.20;2.00;;;;;;;;;;5062467;28;20194;-84
2022/05/25 02:39:56;;;;;;;1.70;1.60;;;;;;;;;;5061775;28;20217;-83
2022/05/25 02:42:24;;;;;;;1.50;1.50;;;;;;;;;;5062573;28;20624;-84
2022/05/25 02:44:52;;;;;;;2.80;1.80;;;;;;;;;;5061435;28;20208;-85
2022/05/25 02:47:20;;;;;;;3.43;1.60;;;;;;;;;;5061005;28;20715;-84
2022/05/25 02:49:48;;;;;;;1.67;1.57;;;;;;;;;;5061300;28;20209;-84
2022/05/25 02:52:15;;;;;;;2.70;1.60;;;;;;;;;;5075876;22;20226;-85
2022/05/25 02:54:42;;;;;;;2.87;2.13;;;;;;;;;;5055579;28;20218;-85
2022/05/25 02:57:09;;;;;;;3.03;1.50;;;;;;;;;;5074990;28;20240;-85
2022/05/25 02:59:37;;;;;;;1.93;1.80;;;;;;;;;;5075231;28;20205;-85
2022/05/25 03:02:04;;;;;;;1.70;1.60;;;;;;;;;;5071370;28;20586;-85
2022/05/25 03:04:32;;;;;;;1.70;1.60;;;;;;;;;;5056924;28;20264;-85
2022/05/25 03:07:00;;;;;;;1.60;1.50;;;;;;;;;;5073677;28;20230;-85
2022/05/25 03:09:27;;;;;;;2.73;1.50;;;;;;;;;;5074991;28;20194;-85
2022/05/25 03:11:54;;;;;;;2.93;1.53;;;;;;;;;;5074652;28;20222;-85
2022/05/25 03:14:21;;;;;;;1.70;1.60;;;;;;;;;;5074451;28;20229;-85
2022/05/25 03:16:48;;;;;;;4.20;1.80;;;;;;;;;;5074068;28;20238;-85
2022/05/25 03:19:17;;;;;;;6.50;1.67;;;;;;;;;;5074464;28;20213;-85
2022/05/25 03:21:44;;;;;;;2.37;1.60;;;;;;;;;;5074239;28;20244;-85
2022/05/25 03:24:14;;;;;;;1.47;1.47;;;;;;;;;;5074106;28;20206;-84
2022/05/25 03:26:41;;;;;;;2.07;1.80;;;;;;;;;;5073944;28;20249;-85
2022/05/25 03:29:08;;;;;;;3.67;1.60;;;;;;;;;;5074709;28;20198;-86
2022/05/25 03:31:36;;;;;;;1.80;1.70;;;;;;;;;;5075011;28;20245;-86
2022/05/25 03:34:03;;;;;;;2.00;1.77;;;;;;;;;;5074851;28;20189;-86
2022/05/25 03:36:30;;;;;;;3.90;1.70;;;;;;;;;;5073247;28;20245;-86
2022/05/25 03:38:57;;;;;;;1.93;1.60;;;;;;;;;;5073317;28;20297;-86
2022/05/25 03:41:25;;;;;;;1.80;1.70;;;;;;;;;;5073698;28;20238;-86
2022/05/25 03:43:52;;;;;;;4.17;1.93;;;;;;;;;;5073273;28;20202;-86
2022/05/25 03:46:20;;;;;;;2.70;1.80;;;;;;;;;;5072674;28;20238;-87
2022/05/25 03:48:47;;;;;;;1.97;1.83;;;;;;;;;;5073501;28;20202;-86
2022/05/25 03:51:14;;;;;;;2.00;1.90;;;;;;;;;;5072480;28;20245;-86
2022/05/25 03:53:42;;;;;;;1.80;1.70;;;;;;;;;;5072819;28;20232;-86
2022/05/25 03:56:09;;;;;;;3.93;2.10;;;;;;;;;;5075059;28;20241;-86
2022/05/25 03:58:38;;;;;;;5.73;2.20;;;;;;;;;;5075643;28;20214;-86
2022/05/25 04:01:05;;;;;;;3.13;2.07;;;;;;;;;;5075468;28;20257;-87
2022/05/25 04:03:32;;;;;;;1.80;1.70;;;;;;;;;;5090571;28;20194;-87
2022/05/25 04:05:59;;;;;;;3.90;2.00;;;;;;;;;;5094597;28;20263;-86
2022/05/25 04:08:27;;;;;;;1.90;1.70;;;;;;;;;;5096017;28;20221;-86
2022/05/25 04:10:54;;;;;;;3.13;1.50;;;;;;;;;;5095477;28;20229;-87
2022/05/25 04:13:22;;;;;;;1.70;1.60;;;;;;;;;;5095287;28;20664;-87
2022/05/25 04:15:50;;;;;;;3.23;1.90;;;;;;;;;;5093643;28;20264;-86
2022/05/25 04:18:17;;;;;;;1.90;1.80;;;;;;;;;;5096465;28;20209;-87
2022/05/25 04:20:44;;;;;;;1.87;1.70;;;;;;;;;;5096100;28;20239;-86
2022/05/25 04:23:12;;;;;;;8.17;1.80;;;;;;;;;;5095849;28;20571;-86
2022/05/25 04:25:40;;;;;;;2.07;1.87;;;;;;;;;;5095867;28;20219;-86
2022/05/25 04:28:08;;;;;;;2.00;1.90;;;;;;;;;;5096001;28;20196;-86
2022/05/25 04:30:35;;;;;;;2.10;2.00;;;;;;;;;;5095618;28;20242;-87
2022/05/25 04:33:03;;;;;;;2.53;2.00;;;;;;;;;;5095274;28;20213;-87
2022/05/25 04:35:31;;;;;;;4.80;2.23;;;;;;;;;;5095053;28;20235;-87
2022/05/25 04:37:58;;;;;;;2.47;2.27;;;;;;;;;;5095315;28;20199;-87
2022/05/25 04:40:27;;;;;;;6.83;1.93;;;;;;;;;;5094731;28;20228;-87
2022/05/25 04:42:55;;;;;;;3.37;1.97;;;;;;;;;;5094825;28;20213;-87
2022/05/25 04:45:22;;;;;;;3.30;2.13;;;;;;;;;;5087250;28;20228;-87
2022/05/25 04:47:49;;;;;;;6.00;2.10;;;;;;;;;;5073979;28;20214;-87
2022/05/25 04:50:19;;;;;;;3.10;2.10;;;;;;;;;;5072906;28;20243;-87
2022/05/25 04:52:47;;;;;;;6.87;2.27;;;;;;;;;;5073616;28;20237;-87
2022/05/25 04:57:57;;;;;;;2.50;2.30;;;;;;;;;;5071729;28;20290;-85
2022/05/25 05:00:24;;;;;;;4.30;2.10;;;;;;;;;;5070620;28;20228;-85
2022/05/25 05:02:51;;;;;;;3.00;1.93;;;;;;;;;;5053741;28;20257;-86
2022/05/25 05:05:20;;;;;;;3.63;2.07;;;;;;;;;;5071892;28;20272;-85
2022/05/25 05:07:47;;;;;;;2.20;2.00;;;;;;;;;;5072374;28;20231;-85
2022/05/25 05:10:14;;;;;;;2.30;1.93;;;;;;;;;;5063497;28;20668;-85
2022/05/25 05:12:42;;;;;;;2.10;2.00;;;;;;;;;;5062539;28;20225;-85
2022/05/25 05:15:10;;;;;;;2.07;1.87;;;;;;;;;;5070785;28;20225;-85
2022/05/25 05:17:44;;;;;;;2.47;2.27;;;;;;;;;;5061111;28;20220;-85
2022/05/25 05:20:11;;;;;;;3.30;1.80;;;;;;;;;;5062841;28;20209;-85
2022/05/25 05:22:40;;;;;;;3.80;2.00;;;;;;;;;;5076245;28;20225;-85
2022/05/25 05:25:08;;;;;;;2.87;1.87;;;;;;;;;;5076317;28;20220;-86
2022/05/25 05:27:35;;;;;;;2.40;1.97;;;;;;;;;;5079350;28;20205;-86
2022/05/25 05:30:03;;;;;;;3.20;1.87;;;;;;;;;;5087016;28;20212;-84
2022/05/25 05:32:31;;;;;;;2.33;1.90;;;;;;;;;;5087499;28;20240;-84
2022/05/25 05:34:58;;;;;;;3.10;2.20;;;;;;;;;;5065830;28;20230;-84
2022/05/25 05:37:27;;;;;;;4.07;1.80;;;;;;;;;;5060553;28;20198;-84
2022/05/25 05:39:56;;;;;;;4.73;1.90;;;;;;;;;;5059006;28;20209;-85
2022/05/25 05:42:24;;;;;;;3.57;2.00;;;;;;;;;;5070686;28;20244;-84
2022/05/25 05:44:53;;;;;;;3.07;1.80;;;;;;;;;;5055405;28;20220;-84
2022/05/25 05:47:24;;;;;;;3.90;2.13;;;;;;;;;;5053720;28;20558;-84
2022/05/25 05:49:51;;;;;;;2.20;2.00;;;;;;;;;;5054298;28;20202;-85
2022/05/25 05:52:18;;;;;;;2.63;2.00;;;;;;;;;;5054462;28;20336;-84
2022/05/25 05:54:45;;;;;;;3.77;1.87;;;;;;;;;;5054491;28;20206;-84
2022/05/25 05:57:14;;;;;;;3.83;1.87;;;;;;;;;;5053221;28;20245;-85
2022/05/25 05:59:41;;;;;;;2.10;1.80;;;;;;;;;;5053725;28;20210;-85
2022/05/25 06:02:09;;;;;;;5.50;2.30;;;;;;;;;;5053467;28;20336;-85
2022/05/25 06:04:36;;;;;;;4.77;1.90;;;;;;;;;;5053964;28;20213;-84
2022/05/25 06:07:04;;;;;;;2.27;1.70;;;;;;;;;;5054973;28;20287;-85
2022/05/25 06:09:32;;;;;;;1.93;1.83;;;;;;;;;;5056326;28;20217;-86
2022/05/25 06:11:59;;;;;;;3.53;2.03;;;;;;;;;;5064283;28;20240;-85
2022/05/25 06:14:28;;;;;;;4.97;1.77;;;;;;;;;;5074720;28;20221;-85
2022/05/25 06:19:40;;;;;;;5.07;1.67;;;;;;;;;;5055160;28;20594;-85
2022/05/25 06:22:08;;;;;;;2.03;1.30;;;;;;;;;;5073342;28;20237;-85
2022/05/25 06:24:37;;;;;;;2.40;1.90;;;;;;;;;;5074143;28;20212;-85
2022/05/25 06:27:07;;;;;;;2.20;1.50;;;;;;;;;;5071988;28;20717;-85
2022/05/25 06:29:36;;;;;;;2.07;1.70;;;;;;;;;;5072813;28;20292;-84
2022/05/25 06:32:03;;;;;;;3.03;1.57;;;;;;;;;;5072880;28;20233;-85
2022/05/25 06:34:30;;;;;;;1.63;1.50;;;;;;;;;;5073112;28;20581;-85
2022/05/25 06:36:57;;;;;;;2.60;1.50;;;;;;;;;;5072505;28;20723;-84
2022/05/25 06:39:24;;;;;;;3.70;1.90;;;;;;;;;;5074002;28;20209;-84
2022/05/25 06:41:51;;;;;;;2.70;1.60;;;;;;;;;;5073597;28;20237;-85
2022/05/25 06:44:18;;;;;;;3.30;1.40;;;;;;;;;;5073509;28;20210;-84
2022/05/25 06:46:46;;;;;;;2.90;1.60;;;;;;;;;;5073006;28;20650;-84
2022/05/25 06:49:15;;;;;;;6.77;1.70;;;;;;;;;;5073025;28;20227;-84
2022/05/25 06:51:42;;;;;;;3.40;1.33;;;;;;;;;;5065899;28;20607;-85
2022/05/25 06:54:09;;;;;;;3.87;1.30;;;;;;;;;;5053649;28;20202;-86
2022/05/25 06:56:37;;;;;;;1.63;1.50;;;;;;;;;;5060809;28;20221;-85
2022/05/25 06:59:05;;;;;;;3.35;1.60;;;;;;;;;;5072369;28;20209;-84
2022/05/25 07:01:32;;;;;;;3.05;1.20;;;;;;;;;;5072707;28;20257;-84
2022/05/25 07:04:00;;;;;;;1.58;1.25;;;;;;;;;;5073348;28;20278;-85
2022/05/25 07:06:28;;;;;;;1.58;1.42;;;;;;;;;;5064988;28;20228;-84
2022/05/25 07:08:55;;;;;;;3.88;1.42;;;;;;;;;;5053160;28;20264;-86
2022/05/25 07:11:23;;;;;;;2.50;1.20;;;;;;;;;;5052150;28;20701;-85
2022/05/25 07:13:50;;;;;;;1.27;1.13;;;;;;;;;;5053866;28;20198;-84
2022/05/25 07:16:19;;;;;;;1.40;1.30;;;;;;;;;;5052765;28;20269;-86
2022/05/25 07:18:47;;;;;;;1.27;1.10;;;;;;;;;;5053050;28;20206;-84
2022/05/25 07:21:17;;;;;;;1.88;1.30;;;;;;;;;;5052209;28;20712;-85
2022/05/25 07:23:45;;;;;;;2.83;1.50;;;;;;;;;;5052521;28;20216;-85
2022/05/25 07:26:12;;;;;;;2.80;1.23;;;;;;;;;;5052661;28;20234;-84
2022/05/25 07:28:40;;;;;;;3.22;1.42;;;;;;;;;;5052821;28;20600;-87
2022/05/25 07:31:08;;;;;;;1.75;1.20;;;;;;;;;;5052589;28;20245;-85
2022/05/25 07:33:36;;;;;;;2.30;1.20;;;;;;;;;;5053106;28;20237;-85
2022/05/25 07:36:04;;;;;;;1.35;1.25;;;;;;;;;;5051924;28;20237;-85
2022/05/25 07:38:32;;;;;;;1.88;1.42;;;;;;;;;;5071094;28;20708;-85
2022/05/25 07:41:01;;;;;;;3.22;0.98;;;;;;;;;;5072319;28;20233;-85
2022/05/25 07:43:31;;;;;;;2.15;0.98;;;;;;;;;;5072657;28;20212;-86
2022/05/25 07:45:58;;;;;;;11.18;1.20;;;;;;;;;;5071822;28;20249;-85
2022/05/25 07:48:25;;;;;;;1.08;0.98;;;;;;;;;;5073207;28;20209;-84
2022/05/25 07:50:52;;;;;;;1.50;1.30;;;;;;;;;;5075587;28;20262;-85
2022/05/25 07:56:09;;;;;;;1.85;1.30;;;;;;;;;;5071701;28;20260;-84
2022/05/25 07:58:36;;;;;;;3.00;1.05;;;;;;;;;;5071822;28;20634;-85
2022/05/25 08:01:07;;;;;;;1.58;1.27;;;;;;;;;;5072032;28;20240;-85
2022/05/25 08:06:19;;;;;;;1.00;0.90;;;;;;;;;;5071442;28;20228;-85
2022/05/25 08:08:46;;;;;;;3.30;1.20;;;;;;;;;;5071649;28;20201;-85
2022/05/25 08:11:16;;;;;;;1.65;0.90;;;;;;;;;;5070871;28;20602;-85
2022/05/25 08:13:46;;;;;;;0.68;0.68;;;;;;;;;;5072150;28;20202;-85
2022/05/25 08:16:14;;;;;;;2.72;1.00;;;;;;;;;;5071297;28;20233;-85
2022/05/25 08:18:41;;;;;;;1.40;0.80;;;;;;;;;;5069392;28;20205;-83
2022/05/25 08:21:08;;;;;;;1.05;0.60;;;;;;;;;;5071324;28;20244;-83
2022/05/25 08:23:35;;;;;;;1.65;0.93;;;;;;;;;;5067655;28;20197;-83
2022/05/25 08:26:02;;;;;;;3.38;1.30;;;;;;;;;;5050992;28;20229;-83
2022/05/25 08:28:31;;;;;;;0.82;0.80;;;;;;;;;;5051353;28;20214;-82
2022/05/25 08:30:58;;;;;;;0.82;0.80;;;;;;;;;;5050423;28;20238;-85
2022/05/25 08:33:26;;;;;;;1.05;1.02;;;;;;;;;;5051507;28;20194;-83
2022/05/25 08:35:53;;;;;;;3.17;0.85;;;;;;;;;;5055202;28;20232;-84
2022/05/25 08:38:21;;;;;;;1.27;0.85;;;;;;;;;;5071267;28;20212;-84
2022/05/25 08:40:49;;;;;;;3.03;0.93;;;;;;;;;;5070914;28;20304;-83
2022/05/25 08:43:19;;;;;;;1.05;0.80;;;;;;;;;;5070654;28;20240;-84
2022/05/25 08:45:49;;;;;;;1.23;0.80;;;;;;;;;;5070866;28;20252;-84
2022/05/25 08:48:17;;;;;;;2.03;0.85;;;;;;;;;;5070283;28;20220;-83
2022/05/25 08:50:45;;;;;;;1.88;0.70;;;;;;;;;;5076330;28;20629;-85
2022/05/25 08:53:13;;;;;;;1.48;0.70;;;;;;;;;;5077791;28;20718;-87
2022/05/25 08:55:53;;;;;;;0.45;0.45;;;;;;;;;;5078480;28;20252;-86
2022/05/25 08:58:20;;;;;;;1.15;0.52;;;;;;;;;;5078537;28;20228;-85
2022/05/25 09:00:49;;;;;;;1.50;0.50;;;;;;;;;;5077944;28;20228;-85
2022/05/25 09:03:23;;;;;;;0.52;0.43;;;;;;;;;;5078045;28;20245;-86
2022/05/25 09:05:54;;;;;;;1.33;0.60;;;;;;;;;;5077817;28;20267;-85
2022/05/25 09:08:24;;;;;;;1.02;0.70;;;;;;;;;;5078182;28;20197;-86
2022/05/25 09:10:53;;;;;;;0.77;0.70;;;;;;;;;;5078246;28;20225;-86
2022/05/25 09:13:25;;;;;;;2.15;0.63;;;;;;;;;;5077779;28;20521;-86
2022/05/25 09:18:44;;;;;;;0.60;0.60;;;;;;;;;;5078352;28;20185;-85
2022/05/25 09:21:11;;;;;;;0.57;0.40;;;;;;;;;;5077846;28;20632;-86
2022/05/25 09:23:38;;;;;;;1.85;0.45;;;;;;;;;;5077867;28;20209;-85
2022/05/25 09:26:05;;;;;;;1.42;0.47;;;;;;;;;;5077387;28;20724;-85
2022/05/25 09:28:34;;;;;;;2.78;0.70;;;;;;;;;;5078029;28;20330;-87
2022/05/25 09:31:04;;;;;;;1.83;0.70;;;;;;;;;;5077441;28;20233;-85
2022/05/25 09:33:34;;;;;;;0.85;0.40;;;;;;;;;;5078374;28;20209;-85
2022/05/25 09:36:03;;;;;;;1.27;0.50;;;;;;;;;;5077577;28;20239;-87
2022/05/25 09:38:31;;;;;;;1.48;0.40;;;;;;;;;;5078621;28;20205;-87
2022/05/25 09:41:04;;;;;;;0.77;0.30;;;;;;;;;;5078956;28;20233;-86
2022/05/25 09:43:32;;;;;;;1.27;0.35;;;;;;;;;;5078965;28;20551;-86
2022/05/25 09:46:00;;;;;;;0.45;0.20;;;;;;;;;;5077590;28;20661;-88
2022/05/25 09:48:31;;;;;;;2.92;0.50;;;;;;;;;;5077615;28;20193;-86
2022/05/25 09:51:02;;;;;;;1.33;0.57;;;;;;;;;;5077761;28;20240;-87
2022/05/25 09:53:35;;;;;;;1.00;0.57;;;;;;;;;;5077544;28;20224;-86
2022/05/25 09:56:06;;;;;;;1.38;0.52;;;;;;;;;;5077416;28;20312;-86
2022/05/25 09:58:36;;;;;;;0.60;0.40;;;;;;;;;;5077456;28;20232;-87
2022/05/25 10:01:06;;;;;;;0.80;0.40;;;;;;;;;;5074138;28;20282;-86
2022/05/25 10:03:39;;;;;;;3.40;0.25;;;;;;;;;;5074260;28;20302;-89
2022/05/25 10:06:22;;;;;;;1.13;0.40;;;;;;;;;;5072918;28;20233;-86
2022/05/25 10:08:51;;;;;;;2.22;0.50;;;;;;;;;;5057391;28;20210;-85
2022/05/25 10:11:30;;;;;;;1.25;0.38;;;;;;;;;;5057605;28;20237;-86
2022/05/25 10:13:58;;;;;;;0.73;0.40;;;;;;;;;;5058972;28;20376;-86
2022/05/25 10:16:26;;;;;;;2.50;0.43;;;;;;;;;;5053785;28;20342;-86
2022/05/25 10:18:55;;;;;;;0.32;0.28;;;;;;;;;;5054713;28;20210;-87
2022/05/25 10:21:27;;;;;;;1.58;0.43;;;;;;;;;;5053818;28;20238;-87
2022/05/25 10:23:55;;;;;;;0.63;0.20;;;;;;;;;;5065667;28;20236;-86
2022/05/25 10:26:31;;;;;;;1.02;0.60;;;;;;;;;;5073633;28;20233;-86
2022/05/25 10:29:00;;;;;;;2.63;0.75;;;;;;;;;;5074340;28;20231;-88
2022/05/25 10:37:14;;;;;;;1.90;0.32;;;;;;;;;;5074951;28;20304;-87
2022/05/25 10:39:42;;;;;;;1.10;0.50;;;;;;;;;;5072391;28;20205;-84
2022/05/25 10:42:13;;;;;;;0.77;0.30;;;;;;;;;;5071394;28;20780;-86
2022/05/25 10:44:45;;;;;;;0.73;0.40;;;;;;;;;;5074072;28;20642;-83
2022/05/25 10:47:18;;;;;;;0.63;0.43;;;;;;;;;;5073205;28;20241;-84
2022/05/25 10:49:47;;;;;;;2.47;0.50;;;;;;;;;;5073469;28;20296;-83
2022/05/25 10:52:20;;;;;;;1.70;0.77;;;;;;;;;;5074199;28;20247;-83
2022/05/25 10:54:47;;;;;;;2.67;0.57;;;;;;;;;;5074418;28;20217;-84
2022/05/25 10:57:24;;;;;;;0.30;0.20;;;;;;;;;;5074321;28;20233;-84
2022/05/25 10:59:58;;;;;;;0.52;0.40;;;;;;;;;;5056563;28;20257;-85
2022/05/25 11:02:42;;;;;;;0.45;0.40;;;;;;;;;;5053303;28;20229;-83
2022/05/25 11:05:15;;;;;;;2.13;0.52;;;;;;;;;;5072836;28;20209;-86
2022/05/25 11:07:42;;;;;;;2.42;0.60;;;;;;;;;;5073505;28;20181;-87
2022/05/25 11:10:18;;;;;;;1.55;0.40;;;;;;;;;;5071831;28;20696;-87
2022/05/25 11:12:52;;;;;;;1.00;0.40;;;;;;;;;;5073507;28;20232;-87
2022/05/25 11:15:23;;;;;;;1.10;0.47;;;;;;;;;;5073224;28;20229;-86
2022/05/25 11:17:57;;;;;;;0.80;0.50;;;;;;;;;;5073487;28;20233;-86
2022/05/25 11:20:29;;;;;;;0.28;0.22;;;;;;;;;;5073224;28;20240;-86
2022/05/25 11:23:13;;;;;;;1.55;0.60;;;;;;;;;;5073094;28;20233;-87
2022/05/25 11:25:59;;;;;;;3.70;0.47;;;;;;;;;;5072606;28;20608;-88
2022/05/25 11:28:35;;;;;;;2.85;0.70;;;;;;;;;;5073603;28;20208;-88
2022/05/25 11:31:08;;;;;;;2.25;0.70;;;;;;;;;;5073494;28;20256;-87
2022/05/25 11:33:41;;;;;;;0.60;0.40;;;;;;;;;;5073159;28;20256;-86
2022/05/25 11:36:16;;;;;;;0.60;0.30;;;;;;;;;;5072762;28;20237;-87
2022/05/25 11:38:50;;;;;;;1.35;0.30;;;;;;;;;;5072942;28;20685;-86
2022/05/25 11:41:23;;;;;;;1.77;0.50;;;;;;;;;;5073170;28;20245;-85
2022/05/25 11:43:59;;;;;;;2.80;0.65;;;;;;;;;;5073468;28;20216;-87
2022/05/25 11:46:31;;;;;;;1.20;0.40;;;;;;;;;;5072332;28;20233;-87
2022/05/25 11:49:18;;;;;;;2.30;0.38;;;;;;;;;;5072479;28;20217;-86
2022/05/25 11:51:52;;;;;;;2.47;0.65;;;;;;;;;;5071981;28;20292;-86
2022/05/25 11:54:26;;;;;;;1.00;0.50;;;;;;;;;;5072454;28;20645;-86
2022/05/25 11:56:57;;;;;;;1.27;0.43;;;;;;;;;;5071721;28;20243;-88
2022/05/25 11:59:38;;;;;;;1.00;0.35;;;;;;;;;;5072798;28;20241;-86
2022/05/25 12:02:14;;;;;;;1.13;0.60;;;;;;;;;;5072135;28;20606;-85
2022/05/25 12:04:49;;;;;;;3.35;0.38;;;;;;;;;;5072915;28;20188;-88
2022/05/25 12:07:22;;;;;;;2.47;0.80;;;;;;;;;;5071803;28;21041;-87
2022/05/25 12:10:10;;;;;;;0.82;0.47;;;;;;;;;;5072194;28;20200;-86
2022/05/25 12:12:40;;;;;;;3.97;0.70;;;;;;;;;;5065996;28;20229;-87
2022/05/25 12:15:13;;;;;;;0.68;0.38;;;;;;;;;;5081865;28;20285;-86
2022/05/25 12:17:46;;;;;;;2.55;0.68;;;;;;;;;;5072815;28;20308;-85
2022/05/25 12:20:17;;;;;;;0.93;0.50;;;;;;;;;;5071691;28;20240;-86
2022/05/25 12:22:50;;;;;;;1.77;0.30;;;;;;;;;;5072720;28;20599;-86
2022/05/25 12:25:18;;;;;;;2.28;0.80;;;;;;;;;;5051876;28;20237;-86
2022/05/25 12:27:47;;;;;;;2.33;0.32;;;;;;;;;;5052121;28;20206;-88
2022/05/25 12:30:17;;;;;;;1.88;0.50;;;;;;;;;;5078204;28;20565;-87
2022/05/25 12:32:45;;;;;;;2.17;0.63;;;;;;;;;;5057846;28;20790;-86
2022/05/25 12:35:14;;;;;;;1.10;0.50;;;;;;;;;;5052882;28;20202;-87
2022/05/25 12:37:43;;;;;;;0.38;0.38;;;;;;;;;;5052656;28;20233;-86
2022/05/25 12:40:12;;;;;;;1.10;0.68;;;;;;;;;;5051390;28;20264;-85
2022/05/25 12:42:41;;;;;;;2.22;0.60;;;;;;;;;;5065003;28;20229;-86
2022/05/25 12:50:42;;;;;;;0.55;0.50;;;;;;;;;;5060472;28;20703;-88
2022/05/25 12:53:21;;;;;;;1.38;0.45;;;;;;;;;;5071501;28;20237;-86
2022/05/25 12:55:55;;;;;;;1.77;0.80;;;;;;;;;;5072245;28;20228;-85
2022/05/25 12:58:38;;;;;;;1.58;0.77;;;;;;;;;;5071637;28;20317;-86
2022/05/25 13:01:07;;;;;;;2.05;0.63;;;;;;;;;;5071132;28;20247;-84
2022/05/25 13:03:36;;;;;;;0.30;0.30;;;;;;;;;;5071532;28;20554;-86
2022/05/25 13:06:05;;;;;;;2.38;1.05;;;;;;;;;;5071829;28;20320;-87
2022/05/25 13:08:59;;;;;;;3.10;0.82;;;;;;;;;;5072001;28;20205;-83
2022/05/25 13:11:35;;;;;;;0.45;0.20;;;;;;;;;;5009947;28;20237;-88
2022/05/25 13:14:02;;;;;;;1.08;0.30;;;;;;;;;;5070390;28;20669;-85
2022/05/25 13:16:51;;;;;;;1.42;0.52;;;;;;;;;;5070266;28;20755;-85
2022/05/25 13:19:19;;;;;;;0.60;0.30;;;;;;;;;;5071088;28;20229;-84
2022/05/25 13:22:06;;;;;;;1.55;0.77;;;;;;;;;;5072579;28;20682;-82
2022/05/25 13:24:52;;;;;;;2.92;0.40;;;;;;;;;;5072783;28;20248;-88
2022/05/25 13:27:28;;;;;;;0.85;0.38;;;;;;;;;;5071766;28;20236;-81
2022/05/25 13:30:02;;;;;;;0.10;0.10;;;;;;;;;;5074486;28;20185;-83
2022/05/25 13:32:35;;;;;;;1.05;0.52;;;;;;;;;;5073170;28;20681;-83
2022/05/25 13:35:05;;;;;;;2.20;0.52;;;;;;;;;;5073896;28;20281;-84
2022/05/25 13:37:32;;;;;;;1.55;0.43;;;;;;;;;;5078038;28;20221;-83
2022/05/25 13:39:59;;;;;;;2.15;0.50;;;;;;;;;;5077876;28;20209;-80
2022/05/25 13:42:27;;;;;;;0.52;0.52;;;;;;;;;;5079318;28;20260;-84
2022/05/25 13:44:57;;;;;;;1.25;0.50;;;;;;;;;;5077807;28;20205;-82
2022/05/25 13:47:25;;;;;;;0.35;0.35;;;;;;;;;;5076898;28;20221;-80
2022/05/25 13:49:53;;;;;;;1.65;0.47;;;;;;;;;;5079053;28;20217;-81
2022/05/25 13:52:21;;;;;;;0.75;0.60;;;;;;;;;;5078439;28;20248;-83
2022/05/25 13:54:51;;;;;;;1.65;0.70;;;;;;;;;;5079981;28;20216;-80
2022/05/25 13:57:31;;;;;;;0.52;0.45;;;;;;;;;;5077676;28;20315;-80
2022/05/25 14:00:02;;;;;;;0.73;0.60;;;;;;;;;;5076566;28;20284;-81
2022/05/25 14:02:31;;;;;;;0.40;0.32;;;;;;;;;;5076964;28;20229;-84
2022/05/25 14:05:00;;;;;;;1.45;0.70;;;;;;;;;;5074120;28;20205;-85
2022/05/25 14:07:32;;;;;;;0.63;0.50;;;;;;;;;;5076254;28;20190;-83
2022/05/25 14:12:45;;;;;;;1.30;0.35;;;;;;;;;;5036618;28;20218;-86
2022/05/25 14:15:17;;;;;;;1.58;0.70;;;;;;;;;;5054364;28;20202;-83
2022/05/25 14:17:54;;;;;;;0.40;0.32;;;;;;;;;;5054759;28;20210;-85
2022/05/25 14:20:22;;;;;;;0.70;0.45;;;;;;;;;;5055997;28;20241;-82
2022/05/25 14:22:50;;;;;;;0.75;0.55;;;;;;;;;;5058094;28;20223;-84
2022/05/25 14:25:20;;;;;;;0.82;0.60;;;;;;;;;;5058960;28;20233;-83
2022/05/25 14:27:49;;;;;;;1.48;0.68;;;;;;;;;;5057796;28;20738;-84
2022/05/25 14:30:17;;;;;;;3.67;0.80;;;;;;;;;;5055551;28;20245;-84
2022/05/25 14:32:57;;;;;;;1.48;0.70;;;;;;;;;;5056945;28;20304;-84
2022/05/25 14:35:24;;;;;;;3.13;0.82;;;;;;;;;;5055507;28;20253;-84
2022/05/25 14:37:51;;;;;;;1.13;0.45;;;;;;;;;;5055210;28;20682;-83
2022/05/25 14:40:20;;;;;;;4.35;0.90;;;;;;;;;;5055133;28;20295;-83
2022/05/25 14:42:55;;;;;;;1.80;0.57;;;;;;;;;;5056178;28;20230;-83
2022/05/25 14:45:24;;;;;;;0.75;0.60;;;;;;;;;;5056302;28;20244;-85
2022/05/25 14:47:52;;;;;;;0.50;0.50;;;;;;;;;;5053964;28;20209;-85
2022/05/25 14:50:21;;;;;;;2.05;1.17;;;;;;;;;;5055316;28;20287;-84
2022/05/25 14:52:53;;;;;;;2.55;0.60;;;;;;;;;;5054774;28;20765;-85
2022/05/25 14:55:25;;;;;;;1.13;0.63;;;;;;;;;;5054745;28;20234;-84
2022/05/25 14:58:12;;;;;;;0.93;0.40;;;;;;;;;;5055334;28;20225;-86
2022/05/25 15:00:40;;;;;;;2.70;0.90;;;;;;;;;;5055061;28;20697;-88
2022/05/25 15:03:09;;;;;;;4.28;0.77;;;;;;;;;;5067082;28;20217;-87
2022/05/25 15:05:44;;;;;;;2.60;0.93;;;;;;;;;;5074231;28;20237;-87
2022/05/25 15:08:22;;;;;;;1.33;0.70;;;;;;;;;;5073633;28;20231;-87
2022/05/25 15:10:49;;;;;;;3.53;0.45;;;;;;;;;;5073499;28;20232;-88
2022/05/25 15:13:25;;;;;;;2.13;0.40;;;;;;;;;;5073382;28;20721;-87
2022/05/25 15:18:52;;;;;;;2.15;0.50;;;;;;;;;;5074012;28;20236;-87
2022/05/25 15:21:22;;;;;;;2.88;0.73;;;;;;;;;;5074403;28;20237;-87
2022/05/25 15:23:55;;;;;;;0.50;0.47;;;;;;;;;;5074578;28;20198;-86
2022/05/25 15:26:23;;;;;;;0.63;0.57;;;;;;;;;;5074295;28;20237;-89
2022/05/25 15:29:10;;;;;;;2.00;0.68;;;;;;;;;;5074460;28;20205;-88
2022/05/25 15:31:38;;;;;;;2.55;0.63;;;;;;;;;;5073020;28;20237;-87
2022/05/25 15:34:05;;;;;;;1.05;0.43;;;;;;;;;;5073487;28;20213;-87